Wetterdaten: aktuell Samstag, 05.09.2026 04:55
Datum Zeit Innen Temp. A. Schlaf Luftf.innen Feuchte A. Feuchte 2 Luftdruck Regen Wind
05.09.2026 04:55 24,6 °C 16,4 °C 21,6 °C 57 % 79 % 62 % 1012,6 hPa 0,0 mm 0,0 km/h
05.09.2026 03:55 24,8 °C 16,6 °C 21,8 °C 57 % 78 % 61 % 1012,6 hPa 0,0 mm 0,0 km/h
05.09.2026 02:55 25,1 °C 17,1 °C 22,2 °C 56 % 77 % 61 % 1012,5 hPa 0,0 mm 0,0 km/h
05.09.2026 01:55 25,5 °C 17,8 °C 22,5 °C 56 % 76 % 61 % 1012,4 hPa 0,0 mm 0,0 km/h
05.09.2026 00:55 25,8 °C 18,7 °C 23,0 °C 56 % 73 % 60 % 1012,3 hPa 0,0 mm 0,0 km/h
04.09.2026 23:55 26,0 °C 19,1 °C 23,5 °C 54 % 72 % 59 % 1012,2 hPa 0,0 mm 0,0 km/h
04.09.2026 22:55 26,2 °C 19,9 °C 23,9 °C 54 % 70 % 58 % 1012,1 hPa 0,0 mm 0,0 km/h
04.09.2026 21:55 26,4 °C 21,7 °C 23,9 °C 53 % 65 % 58 % 1011,9 hPa 0,0 mm 0,0 km/h
04.09.2026 20:55 26,6 °C 23,1 °C 23,8 °C 52 % 57 % 58 % 1012,7 hPa 0,0 mm 0,0 km/h
04.09.2026 19:55 26,8 °C 25,9 °C 23,8 °C 51 % 48 % 58 % 1011,3 hPa 0,0 mm 0,0 km/h
04.09.2026 18:55 26,8 °C 29,4 °C 23,7 °C 50 % 39 % 59 % 1010,8 hPa 0,0 mm 1,3 km/h
04.09.2026 17:55 27,4 °C 30,3 °C 23,6 °C 48 % 37 % 59 % 1011,7 hPa 0,0 mm 1,9 km/h
04.09.2026 16:55 27,3 °C 30,9 °C 23,6 °C 47 % 35 % 59 % 1011,7 hPa 0,0 mm 3,0 km/h
04.09.2026 15:55 27,0 °C 31,2 °C 23,5 °C 48 % 34 % 59 % 1012,7 hPa 0,0 mm 5,2 km/h
04.09.2026 14:55 26,6 °C 30,0 °C 23,4 °C 48 % 35 % 59 % 1013,9 hPa 0,0 mm 11,3 km/h
04.09.2026 13:55 26,1 °C 29,9 °C 23,4 °C 49 % 36 % 59 % 1014,9 hPa 0,0 mm 7,2 km/h
04.09.2026 12:55 25,8 °C 29,1 °C 23,3 °C 51 % 38 % 59 % 1016,1 hPa 0,0 mm 2,2 km/h
04.09.2026 11:55 25,5 °C 28,1 °C 23,2 °C 52 % 41 % 59 % 1016,2 hPa 0,0 mm 3,0 km/h
04.09.2026 10:55 25,1 °C 26,6 °C 23,2 °C 54 % 46 % 59 % 1017,4 hPa 0,0 mm 3,0 km/h
04.09.2026 09:55 24,9 °C 25,4 °C 23,0 °C 54 % 48 % 59 % 1017,6 hPa 0,0 mm 2,7 km/h
04.09.2026 08:55 24,2 °C 21,0 °C 22,8 °C 58 % 64 % 59 % 1018,2 hPa 0,0 mm 0,8 km/h
04.09.2026 07:55 23,5 °C 20,0 °C 22,2 °C 59 % 65 % 60 % 1018,3 hPa 0,0 mm 2,5 km/h
04.09.2026 06:55 23,2 °C 17,2 °C 22,0 °C 59 % 76 % 60 % 1018,7 hPa 0,0 mm 0,0 km/h
04.09.2026 05:55 23,4 °C 17,9 °C 22,4 °C 58 % 73 % 59 % 1018,6 hPa 0,0 mm 0,0 km/h
04.09.2026 05:00 23,7 °C 18,5 °C 22,6 °C 58 % 72 % 59 % 1018,5 hPa 0,0 mm 0,0 km/h
_ Min-Zeit 06:40 04:55 04:35 15:35 14:40 18:35 18:40 - 05:00
Minimum _ 23,2 °C 16,4 °C 21,6 °C 47 % 34 % 58 % 1010,8 hPa - 0,0 km/h
_ Max-Zeit 16:45 15:45 21:50 07:00 04:40 03:25 06:30 05:00 16:10
Maximum _ 27,4 °C 31,8 °C 23,9 °C 60 % 79 % 62 % 1018,7 hPa 0,0 mm 28,0 km/h
N
Durchschnitt _ 25,4 °C 23,1 °C 23,0 °C 54 % 58 % 59 % 1014,6 hPa #0,0 mm 2,0 km/h